Погода Болна неделю

Майо-Кеби, Чад

25 февраля-02 марта
  • 25февраля
    Сегодня
    +21°
    +37°
    Облачно с прояснениями
    ВремяПогодаТемператураВлажностьДавлениеВетер, м/сВероятность осадков
    01:00Облачно с прояснениями+26°C32 %735 мм4.9 м/с2 %
    04:00Облачно с прояснениями+23°C39 %734 мм4.2 м/с2 %
    07:00Облачно с прояснениями+22°C41 %735 мм4.2 м/с2 %
    10:00Облачно с прояснениями+30°C26 %737 мм4.5 м/с2 %
    13:00Облачно с прояснениями+36°C18 %734 мм4.2 м/с2 %
    16:00Ясно и безоблачно+36°C16 %732 мм4.1 м/с2 %
    19:00Ясно и безоблачно+32°C20 %733 мм3.7 м/с2 %
    22:00Ясно и безоблачно+29°C23 %734 мм4.5 м/с2 %
  • 26февраля
    Понедельник
    +22°
    +39°
    Ясно и безоблачно
    ВремяПогодаТемператураВлажностьДавлениеВетер, м/сВероятность осадков
    01:00Ясно и безоблачно+26°C27 %733 мм4.3 м/с2 %
    04:00Небольшая облачность+24°C30 %732 мм3.3 м/с2 %
    07:00Практически безоблачно+22°C33 %733 мм3.3 м/с2 %
    10:00Практически безоблачно+32°C20 %735 мм4.5 м/с2 %
    13:00Ясно и безоблачно+37°C15 %732 мм4.6 м/с2 %
    16:00Ясно и безоблачно+38°C14 %730 мм4.0 м/с2 %
    19:00Ясно и безоблачно+32°C18 %731 мм2.4 м/с2 %
    22:00Ясно и безоблачно+29°C22 %732 мм3.5 м/с2 %
  • 27февраля
    Вторник
    +22°
    +40°
    Ясно и безоблачно
    ВремяПогодаТемператураВлажностьДавлениеВетер, м/сВероятность осадков
    01:00Ясно и безоблачно+27°C25 %732 мм3.5 м/с2 %
    04:00Ясно и безоблачно+25°C28 %731 мм3.4 м/с2 %
    07:00Ясно и безоблачно+24°C29 %732 мм2.7 м/с2 %
    10:00Практически безоблачно+33°C17 %734 мм3.7 м/с2 %
    13:00Ясно и безоблачно+39°C12 %731 мм3.4 м/с2 %
    16:00Ясно и безоблачно+39°C12 %729 мм2.9 м/с2 %
    19:00Ясно и безоблачно+33°C16 %730 мм2.3 м/с2 %
    22:00Ясно и безоблачно+29°C19 %731 мм2.9 м/с2 %
  • 28февраля
    Среда
    +22°
    +41°
    Небольшая облачность
    ВремяПогодаТемператураВлажностьДавлениеВетер, м/сВероятность осадков
    01:00Ясно и безоблачно+27°C20 %730 мм2.9 м/с2 %
    04:00Ясно и безоблачно+25°C21 %730 мм3.0 м/с2 %
    07:00Ясно и безоблачно+24°C21 %731 мм2.6 м/с2 %
    10:00Практически безоблачно+35°C11 %732 мм3.3 м/с2 %
    13:00Небольшая облачность+40°C10 %730 мм3.0 м/с2 %
    16:00Ясно и безоблачно+40°C10 %728 мм2.3 м/с2 %
    19:00Ясно и безоблачно+34°C14 %728 мм2.3 м/с2 %
    22:00Ясно и безоблачно+30°C16 %729 мм3.1 м/с2 %
Мы используем cookies
Соглашаюсь